Thief River Falls, MN

8:16 PM CST on February 24, 2017 (GMT -0600)
Thief River Falls Regional

Weather History for KTVF - March, 2013

Change the Weather History Date:

Saturday, March 9, 2013

  Actual Average Record
Temperature  
Mean Temperature 26 °F -  
Max Temperature 32 °F 22 °F 49 °F (1990)
Min Temperature 21 °F 6 °F -15 °F (1975)
Degree Days  
Heating Degree Days 38    
Moisture  
Dew Point 23 °F    
Average Humidity 83    
Maximum Humidity 93    
Minimum Humidity 74    
Precipitation  
Precipitation 0.01 in - - ()
Sea Level Pressure  
Sea Level Pressure 29.89 in    
Wind  
Wind Speed 9 mph (North)    
Max Wind Speed 18 mph    
Max Gust Speed -    
Visibility 6 miles    
Events      
Averages and records for this station are not official NWS values.
T = Trace of Precipitation, MM = Missing Value Source: NWS Daily Summary

Daily Weather History Graph

Daily Weather History Graph

Search for Another Location

Airport or City:

Trip Planner

Search our weather history database for the weather conditions in past years. The results will help you decide how hot, cold, wet, or windy it might be!

Date:

Astronomy

Mar. 09, 2013 Rise Set
Actual Time 6:49 AM CST 6:21 PM CST
Civil Twilight 6:18 AM CST 6:52 PM CST
Nautical Twilight 5:42 AM CST 7:28 PM CST
Astronomical Twilight 5:06 AM CST 8:05 PM CST
Moon 5:21 AM CST (3/9) 4:19 PM CST (3/9)
Length of Visible Light 12h 34m
Length of Day
11h 32m
Waning Crescent, 5% of the Moon is Illuminated
Mar 9
Waning Crescent
Mar 11
New
Mar 19
First Quarter
Mar 27
Full
Apr 2
Last Quarter

Hourly Weather History & Observations

Time (CST) Temp. Windchill Dew Point Humidity Pressure Visibility Wind Dir Wind Speed Gust Speed Precip Events Conditions
12:15 AM 26.6 °F 21.2 °F 21.2 °F 80% 30.06 in 7.0 mi NE 4.6 mph - N/A   Overcast
12:35 AM 26.6 °F 21.2 °F 21.2 °F 80% 30.05 in 8.0 mi NE 4.6 mph - N/A   Overcast
12:55 AM 26.6 °F 20.0 °F 21.2 °F 80% 30.04 in 8.0 mi NE 5.8 mph - N/A   Overcast
1:15 AM 26.6 °F 18.2 °F 21.2 °F 80% 30.03 in 7.0 mi NE 8.1 mph - N/A   Overcast
1:35 AM 26.6 °F 17.5 °F 21.2 °F 80% 30.02 in 8.0 mi NE 9.2 mph - N/A   Overcast
1:55 AM 26.6 °F 16.8 °F 21.2 °F 80% 30.01 in 8.0 mi ENE 10.4 mph - N/A   Overcast
2:15 AM 26.6 °F 17.5 °F 21.2 °F 80% 29.99 in 9.0 mi NE 9.2 mph - N/A   Overcast
2:35 AM 26.6 °F 16.8 °F 21.2 °F 80% 29.98 in 10.0 mi ENE 10.4 mph - N/A   Overcast
2:55 AM 26.6 °F 16.8 °F 21.2 °F 80% 29.97 in 10.0 mi ENE 10.4 mph - N/A   Overcast
3:15 AM 26.6 °F 18.2 °F 21.2 °F 80% 29.96 in 10.0 mi ENE 8.1 mph - N/A   Mostly Cloudy
3:35 AM 26.6 °F 18.2 °F 21.2 °F 80% 29.95 in 10.0 mi NE 8.1 mph - N/A   Partly Cloudy
3:55 AM 26.6 °F 18.2 °F 21.2 °F 80% 29.93 in 10.0 mi NE 8.1 mph - N/A   Partly Cloudy
4:15 AM 26.6 °F 18.2 °F 21.2 °F 80% 29.93 in 9.0 mi NE 8.1 mph - N/A   Scattered Clouds
4:35 AM 26.6 °F 18.2 °F 21.2 °F 80% 29.93 in 8.0 mi NE 8.1 mph - N/A   Mostly Cloudy
4:55 AM 26.6 °F 18.2 °F 21.2 °F 80% 29.92 in 8.0 mi NE 8.1 mph - N/A   Overcast
5:15 AM 26.6 °F 19.1 °F 23.0 °F 86% 29.92 in 9.0 mi NE 6.9 mph - N/A   Overcast
5:35 AM 26.6 °F 19.1 °F 21.2 °F 80% 29.91 in 8.0 mi NE 6.9 mph - N/A   Overcast
5:55 AM 26.6 °F 19.1 °F 23.0 °F 86% 29.92 in 5.0 mi NE 6.9 mph - N/A   Overcast
6:15 AM 26.6 °F 19.1 °F 23.0 °F 86% 29.91 in 4.0 mi NE 6.9 mph - N/A   Overcast
6:35 AM 26.6 °F 20.0 °F 23.0 °F 86% 29.91 in 4.0 mi NE 5.8 mph - N/A   Overcast
6:55 AM 28.4 °F 22.2 °F 24.8 °F 86% 29.91 in 4.0 mi NE 5.8 mph - N/A   Overcast
7:15 AM 26.6 °F 18.2 °F 24.8 °F 93% 29.90 in 2.5 mi NE 8.1 mph - N/A   Overcast
7:35 AM 26.6 °F 17.5 °F 23.0 °F 86% 29.90 in 2.5 mi North 9.2 mph - N/A   Overcast
7:55 AM 26.6 °F 16.2 °F 24.8 °F 93% 29.87 in 2.5 mi NE 11.5 mph - N/A   Overcast
8:15 AM 28.4 °F 19.1 °F 24.8 °F 86% 29.87 in 3.0 mi NE 10.4 mph - N/A   Overcast
8:35 AM 26.6 °F 18.2 °F 23.0 °F 86% 29.88 in 2.5 mi NE 8.1 mph - N/A   Overcast
8:55 AM 28.4 °F 20.4 °F 24.8 °F 86% 29.87 in 3.0 mi NE 8.1 mph - N/A   Overcast
9:15 AM 28.4 °F 19.7 °F 24.8 °F 86% 29.87 in 2.5 mi NNE 9.2 mph - N/A   Overcast
9:35 AM 28.4 °F 19.7 °F 24.8 °F 86% 29.85 in 2.0 mi NNE 9.2 mph - N/A   Overcast
9:55 AM 28.4 °F 20.4 °F 26.6 °F 93% 29.85 in 2.0 mi NNE 8.1 mph - N/A   Overcast
10:15 AM 30.2 °F 21.9 °F 26.6 °F 86% 29.84 in 2.5 mi NNE 9.2 mph - N/A   Overcast
10:35 AM 30.2 °F 21.3 °F 26.6 °F 86% 29.83 in 1.8 mi NNE 10.4 mph - N/A   Overcast
10:55 AM 30.2 °F 22.6 °F 26.6 °F 86% 29.82 in 4.0 mi NNE 8.1 mph - N/A   Overcast
11:15 AM 30.2 °F 21.9 °F 26.6 °F 86% 29.81 in 4.0 mi NNE 9.2 mph - N/A   Overcast
11:35 AM 30.2 °F 22.6 °F 26.6 °F 86% 29.83 in 4.0 mi NE 8.1 mph - N/A   Overcast
11:55 AM 32.0 °F 26.4 °F 26.6 °F 80% 29.83 in 4.0 mi North 5.8 mph - N/A   Overcast
12:15 PM 30.2 °F 23.4 °F 26.6 °F 86% 29.82 in 4.0 mi North 6.9 mph - N/A   Overcast
12:35 PM 32.0 °F 25.6 °F 26.6 °F 80% 29.81 in 4.0 mi North 6.9 mph - N/A   Overcast
12:55 PM 30.2 °F 22.6 °F 26.6 °F 86% 29.81 in 5.0 mi North 8.1 mph - N/A   Overcast
1:15 PM 30.2 °F 22.6 °F 26.6 °F 86% 29.80 in 4.0 mi North 8.1 mph - N/A   Overcast
1:35 PM 32.0 °F 24.8 °F 26.6 °F 80% 29.81 in 5.0 mi North 8.1 mph - 0.01 in   Overcast
1:55 PM 32.0 °F 24.8 °F 26.6 °F 80% 29.81 in 5.0 mi North 8.1 mph - 0.01 in   Overcast
2:15 PM 32.0 °F 24.8 °F 26.6 °F 80% 29.81 in 5.0 mi North 8.1 mph - N/A   Overcast
2:35 PM 32.0 °F 23.0 °F 26.6 °F 80% 29.80 in 5.0 mi NNW 11.5 mph - N/A   Overcast
2:55 PM 32.0 °F 24.2 °F 26.6 °F 80% 29.81 in 5.0 mi North 9.2 mph - N/A   Overcast
3:15 PM 32.0 °F 23.6 °F 26.6 °F 80% 29.80 in 5.0 mi NNW 10.4 mph - N/A   Overcast
3:35 PM 28.4 °F 17.0 °F 24.8 °F 86% 29.81 in 5.0 mi NW 15.0 mph - N/A   Overcast
3:55 PM 28.4 °F 17.5 °F 24.8 °F 86% 29.80 in 5.0 mi NW 13.8 mph - N/A   Overcast
4:15 PM 30.2 °F 20.2 °F 24.8 °F 80% 29.81 in 5.0 mi NNW 12.7 mph - N/A   Overcast
4:35 PM 30.2 °F 21.3 °F 24.8 °F 80% 29.81 in 5.0 mi North 10.4 mph - N/A   Overcast
4:55 PM 30.2 °F 20.2 °F 26.6 °F 86% 29.81 in 5.0 mi NNW 12.7 mph - N/A   Overcast
5:15 PM 30.2 °F 20.8 °F 24.8 °F 80% 29.82 in 5.0 mi North 11.5 mph - N/A   Overcast
5:35 PM 30.2 °F 21.9 °F 24.8 °F 80% 29.83 in 7.0 mi NNW 9.2 mph - N/A   Overcast
5:55 PM 30.2 °F 22.6 °F 24.8 °F 80% 29.83 in 6.0 mi NNW 8.1 mph - N/A   Overcast
6:15 PM 30.2 °F 21.3 °F 24.8 °F 80% 29.83 in 7.0 mi NNW 10.4 mph - N/A   Overcast
6:35 PM 28.4 °F 18.0 °F 24.8 °F 86% 29.85 in 7.0 mi NW 12.7 mph - N/A   Overcast
6:55 PM 26.6 °F 15.2 °F 21.2 °F 80% 29.86 in 8.0 mi WNW 13.8 mph - N/A   Overcast
7:15 PM 24.8 °F 11.9 °F 17.6 °F 74% 29.87 in 10.0 mi NW 16.1 mph - N/A   Mostly Cloudy
7:35 PM 24.8 °F 11.5 °F 17.6 °F 74% 29.88 in 10.0 mi NW 17.3 mph - N/A   Mostly Cloudy
7:55 PM 24.8 °F 12.4 °F 19.4 °F 80% 29.89 in 10.0 mi NW 15.0 mph - N/A   Overcast
8:15 PM 24.8 °F 12.4 °F 17.6 °F 74% 29.89 in 10.0 mi NW 15.0 mph - N/A   Overcast
8:35 PM 24.8 °F 13.4 °F 19.4 °F 80% 29.90 in 10.0 mi NW 12.7 mph - N/A   Overcast
8:55 PM 24.8 °F 12.4 °F 19.4 °F 80% 29.90 in 10.0 mi NNW 15.0 mph - N/A   Overcast
9:15 PM 24.8 °F 12.9 °F 19.4 °F 80% 29.91 in 10.0 mi NW 13.8 mph - N/A   Overcast
9:35 PM 23.0 °F 9.6 °F 19.4 °F 86% 29.92 in 6.0 mi NW 16.1 mph - N/A   Overcast
9:55 PM 23.0 °F 8.7 °F 19.4 °F 86% 29.93 in 7.0 mi NW 18.4 mph - N/A   Overcast
10:15 PM 23.0 °F 9.6 °F 19.4 °F 86% 29.93 in 7.0 mi NW 16.1 mph - N/A   Overcast
10:35 PM 21.2 °F 8.3 °F 19.4 °F 93% 29.94 in 8.0 mi NW 13.8 mph - N/A   Overcast
10:55 PM 23.0 °F 9.6 °F 17.6 °F 80% 29.94 in 9.0 mi NNW 16.1 mph - N/A   Overcast
11:15 PM 23.0 °F 8.7 °F 19.4 °F 86% 29.95 in 10.0 mi NW 18.4 mph - N/A   Overcast
11:35 PM 21.2 °F 6.8 °F 17.6 °F 86% 29.95 in 10.0 mi NNW 17.3 mph - N/A   Overcast
11:55 PM 21.2 °F 6.8 °F 17.6 °F 86% 29.97 in 10.0 mi NNW 17.3 mph - N/A   Overcast